EUFO2: Eufaula Lake

Data processed at Thu Jan 04 2018 23:48


All information presented herein is the property of the government of the United States of America and may be revised or deleted at any time without prior notice.
Dissemination of this information without the expressed written consent of the Public Affairs Office, Tulsa District U.S. Army Corps of Engineers is strictly prohibited.
These data are gathered electronically and, as presented, have not undergone any form of quality control. These data are not guaranteed to be valid or correct.
Go to home page.
Go to station list.

Upstream stations:

Downstream station:
Previous Day
Next Day
Current Day
    
SHEF ID:       EUFO2     Eufaula Lake
STATION TYPE:  RESERVOIR
Normal Pool:  Bottom =   565.00, Top =   585.00

               PRECIP ELEVATION   STORAGE   TW-ELEV    INFLOW   RELEASE  AIR-TEMP  WIND-DIRWIND-SPEED REL-HUMID SOLAR-RAD   VOLTAGE  BAT-LOAD
                   in        ft     ac-ft        ft       cfs       cfs         F       deg       mph         %      W/m2      volt      volt
              Ccp-Rev   Ccp-Rev   Ccp-Rev   Ccp-Rev  Regi-Rev  Regi-Rev   Ccp-Rev   Ccp-Rev   Ccp-Rev   Ccp-Rev   Ccp-Rev   Ccp-Rev   Ccp-Rev
(US/Central)
01/02 00:00      0.00    582.10   1934595    485.57       281         0     15.49     43.30      2.53     50.74      0.00     13.69     13.36
01/02 01:00      0.00    582.10   1934595    484.84       187         0     14.50    359.20      4.26     51.78      0.00     13.69     13.53
01/02 02:00      0.00    582.10   1934595    484.31        94         0     15.39     54.20      4.14     54.40      0.00     13.69     13.53
01/02 03:00      0.00    582.08   1932859    483.91         0         0     15.73     99.00      2.10     55.93      0.00     13.68     13.53
01/02 04:00      0.00    582.06   1931123    483.59        91         0     15.94    108.80      3.23     55.62      0.00     13.69     13.53
01/02 05:00      0.00    582.04   1929386    484.63       181         0     15.39    102.40      4.20     59.35      1.00     13.69     13.53
01/02 06:00      0.00    582.02   1927650    488.02       272     11362     15.84     97.20      4.51     54.40      0.00     13.68     13.53
01/02 07:00      0.00    582.02   1927650    488.87      1694     12461     15.84     97.80      4.86     53.06      0.00     13.68     13.53
01/02 08:00      0.00    582.05   1930254    489.20      3180     12585     16.48    105.30      3.87     55.75      3.00     13.68     13.53
01/02 09:00      0.00    582.02   1927650    489.07      4576     12585     17.71    110.40      4.86     50.49     39.00     13.68     13.53
01/02 10:00      0.00    582.04   1929386    489.20      4730     12585     18.37    100.10      3.61     46.65    108.00     13.68     13.53
01/02 11:00      0.00    582.03   1928518    488.98      4751     12585     19.69     97.40      4.09     43.78    222.00     13.68     13.53
01/02 12:00      0.00    582.04   1929386    486.71      3330      1981     20.89    109.00      3.54     40.73    241.00     13.68     13.53
01/02 13:00      0.00    582.01   1926782    485.60      1843         0     22.86    116.10      2.23     38.77    246.00     13.68     13.53
01/02 14:00      0.00    582.02   1927650    484.85       357         0     24.08    162.40      0.21     32.06    209.00     13.69     13.53
01/02 15:00      0.00    582.01   1926782    484.32       876         0     24.85    348.20      1.85     32.18    232.00     13.69     13.53
01/02 16:00      0.00    582.01   1926782    483.92      1528         0     25.07    347.30      1.24     29.86     79.00     13.69     13.36
01/02 17:00      0.00    581.98   1924233    484.67      2292         0     24.94     20.70      1.22     32.30     35.00     13.69     13.53
01/02 18:00      0.00    581.97   1923392    487.97      5578     11127     24.73     33.10      0.84     33.15      2.00     13.69     13.53
01/02 19:00      0.00    581.99   1925073    488.67      5671     12461     24.85     58.20      0.43     35.60      0.00     13.69     13.53
01/02 20:00      0.00    582.01   1926782    488.33      4907      9023     24.30     92.50      1.08     35.90      0.00     13.69     13.53
01/02 21:00      0.00    582.01   1926782    486.38      4143      1375     23.20    116.90      0.79     39.75      0.00     13.69     13.53
01/02 22:00      0.00    582.01   1926782    485.36      3379         0     21.67    151.40      1.65     42.07      0.00     13.69     13.53
01/02 23:00      0.00    582.04   1929386    484.67        93         0     22.64    202.00      3.36     54.65      0.00     13.69     13.53